Time;durP1;ratioP1;P1;durP2;ratioP2;P2;SDS_P1;SDS_P2;PMS_P1;PMS_P2;Temp;Humidity;BMP_temperature;BMP_pressure;BME280_temperature;BME280_humidity;BME280_pressure;Samples;Min_cycle;Max_cycle;Signal;HPM_P1;HPM_P2
2023/05/23 00:02:12;;;;;;;34.72;17.48;;;16.90;99.90;;;;;;4998907;28;20041;-82
2023/05/23 00:04:38;;;;;;;28.17;16.42;;;17.10;99.90;;;;;;4969410;28;20034;-81
2023/05/23 00:07:04;;;;;;;27.85;16.95;;;17.20;99.90;;;;;;4954841;28;20068;-83
2023/05/23 00:09:30;;;;;;;29.80;15.52;;;17.10;99.90;;;;;;5014350;28;20095;-77
2023/05/23 00:11:56;;;;;;;31.23;15.02;;;16.90;99.90;;;;;;4982559;28;20045;-85
2023/05/23 00:14:22;;;;;;;29.67;15.05;;;17.00;99.90;;;;;;4952052;28;20081;-80
2023/05/23 00:16:48;;;;;;;41.45;16.23;;;17.10;99.90;;;;;;4964490;28;20042;-79
2023/05/23 00:19:14;;;;;;;27.27;13.48;;;17.10;99.90;;;;;;4991967;28;20042;-80
2023/05/23 00:21:42;;;;;;;34.47;14.63;;;17.20;99.90;;;;;;4950232;28;20608;-80
2023/05/23 00:24:09;;;;;;;34.03;14.68;;;17.30;99.90;;;;;;4996602;28;20111;-78
2023/05/23 00:26:35;;;;;;;23.42;13.75;;;17.00;99.90;;;;;;4949003;28;20041;-79
2023/05/23 00:29:01;;;;;;;29.98;13.57;;;16.90;99.90;;;;;;4966550;28;20038;-77
2023/05/23 00:31:27;;;;;;;24.63;14.43;;;17.20;99.90;;;;;;4964309;28;21860;-80
2023/05/23 00:33:56;;;;;;;25.08;14.02;;;17.10;99.90;;;;;;4966673;28;20048;-79
2023/05/23 00:36:27;;;;;;;23.10;14.70;;;17.20;99.90;;;;;;4967723;28;20045;-77
2023/05/23 00:38:54;;;;;;;23.45;14.55;;;17.20;99.90;;;;;;4985706;28;20485;-78
2023/05/23 00:41:20;;;;;;;30.67;14.32;;;17.20;99.90;;;;;;4971411;28;20049;-80
2023/05/23 00:43:45;;;;;;;28.30;15.00;;;16.90;99.90;;;;;;4965672;28;20037;-82
2023/05/23 00:46:13;;;;;;;27.10;14.55;;;17.10;99.90;;;;;;4952376;28;20054;-77
2023/05/23 00:48:39;;;;;;;24.00;14.23;;;17.40;99.90;;;;;;4961970;28;20044;-78
2023/05/23 00:51:05;;;;;;;23.00;15.30;;;16.90;99.90;;;;;;4980826;28;20046;-79
2023/05/23 00:53:30;;;;;;;22.88;16.30;;;17.10;99.90;;;;;;5059170;28;20077;-78
2023/05/23 00:55:56;;;;;;;24.92;16.98;;;17.10;99.90;;;;;;4973817;28;20141;-79
2023/05/23 00:58:23;;;;;;;26.83;15.10;;;17.10;99.90;;;;;;4973912;28;20125;-80
2023/05/23 01:00:49;;;;;;;27.13;18.20;;;16.90;99.90;;;;;;4973888;28;20041;-76
2023/05/23 01:03:16;;;;;;;27.17;17.15;;;17.00;99.90;;;;;;4974785;28;20038;-78
2023/05/23 01:05:46;;;;;;;20.45;16.73;;;17.00;99.90;;;;;;4989927;28;20061;-79
2023/05/23 01:08:14;;;;;;;20.52;15.60;;;16.80;99.90;;;;;;4987372;28;20042;-79
2023/05/23 01:10:40;;;;;;;22.35;14.02;;;17.30;99.90;;;;;;4988635;28;20042;-79
2023/05/23 01:13:12;;;;;;;23.00;14.50;;;17.00;99.90;;;;;;4989958;28;20046;-80
2023/05/23 01:15:43;;;;;;;18.10;12.43;;;16.90;99.90;;;;;;4999162;28;20663;-78
2023/05/23 01:18:16;;;;;;;22.27;12.43;;;16.80;99.90;;;;;;5015057;28;20050;-81
2023/05/23 01:20:51;;;;;;;26.70;12.05;;;17.00;99.90;;;;;;5003753;28;20406;-80
2023/05/23 01:24:02;;;;;;;13.65;10.25;;;16.90;99.90;;;;;;5016716;28;20054;-78
2023/05/23 01:26:51;;;;;;;18.05;10.75;;;16.70;99.90;;;;;;5002803;28;20087;-79
2023/05/23 01:29:32;;;;;;;19.48;10.05;;;17.00;99.90;;;;;;4990283;28;20444;-77
2023/05/23 01:31:59;;;;;;;11.95;8.63;;;16.80;99.90;;;;;;4973594;28;20162;-77
2023/05/23 01:34:25;;;;;;;11.15;7.68;;;16.60;99.90;;;;;;4970709;28;20133;-75
2023/05/23 01:36:54;;;;;;;13.27;6.68;;;16.80;99.90;;;;;;4952346;28;20152;-81
2023/05/23 01:39:21;;;;;;;14.27;7.13;;;16.80;99.90;;;;;;4989913;28;20038;-79
2023/05/23 01:41:48;;;;;;;14.32;7.35;;;16.70;99.90;;;;;;4951995;28;20038;-76
2023/05/23 01:44:14;;;;;;;18.50;7.78;;;16.60;99.90;;;;;;4966813;28;20069;-77
2023/05/23 01:46:40;;;;;;;16.23;8.35;;;16.40;99.90;;;;;;4965440;28;20046;-78
2023/05/23 01:49:09;;;;;;;17.33;7.78;;;16.30;99.90;;;;;;4967758;28;20077;-78
2023/05/23 01:51:35;;;;;;;16.27;7.25;;;16.60;99.90;;;;;;4984040;28;20046;-78
2023/05/23 01:54:01;;;;;;;17.08;7.68;;;16.30;99.90;;;;;;4983150;28;20417;-78
2023/05/23 01:56:27;;;;;;;16.70;7.93;;;16.40;99.90;;;;;;4963309;28;20031;-79
2023/05/23 01:58:53;;;;;;;16.42;7.65;;;16.40;99.90;;;;;;5050620;28;20098;-80
2023/05/23 02:01:20;;;;;;;15.80;8.25;;;16.30;99.90;;;;;;4996790;28;20037;-81
2023/05/23 02:03:45;;;;;;;20.08;8.15;;;16.50;99.90;;;;;;4996495;28;20043;-80
2023/05/23 02:06:11;;;;;;;18.98;8.15;;;16.30;99.90;;;;;;4993400;28;20058;-78
2023/05/23 02:08:37;;;;;;;28.33;9.38;;;16.40;99.90;;;;;;4952568;28;20041;-77
2023/05/23 02:11:03;;;;;;;25.98;9.82;;;16.30;99.90;;;;;;4949210;28;20043;-80
2023/05/23 02:13:29;;;;;;;24.23;9.55;;;16.30;99.90;;;;;;4937012;28;20056;-74
2023/05/23 02:15:54;;;;;;;19.52;9.05;;;16.20;99.90;;;;;;4983763;28;20038;-81
2023/05/23 02:18:24;;;;;;;24.25;9.77;;;15.90;99.90;;;;;;4993530;28;20046;-77
2023/05/23 02:20:50;;;;;;;20.85;8.77;;;16.00;99.90;;;;;;4976202;28;20109;-80
2023/05/23 02:23:16;;;;;;;20.35;9.32;;;16.00;99.90;;;;;;4983136;28;20084;-80
2023/05/23 02:25:42;;;;;;;23.13;9.68;;;16.20;99.90;;;;;;4984458;28;20069;-79
2023/05/23 02:28:07;;;;;;;20.38;8.98;;;16.10;99.90;;;;;;4960140;28;20051;-82
2023/05/23 02:30:33;;;;;;;16.60;8.60;;;15.80;99.90;;;;;;4969925;28;20627;-79
2023/05/23 02:33:03;;;;;;;19.30;8.90;;;15.90;99.90;;;;;;5052800;28;20045;-78
2023/05/23 02:35:28;;;;;;;15.60;6.93;;;15.60;99.90;;;;;;5037497;28;20042;-81
2023/05/23 02:37:54;;;;;;;20.15;7.15;;;15.90;99.90;;;;;;4981817;28;20040;-79
2023/05/23 02:40:20;;;;;;;20.00;7.35;;;15.40;99.90;;;;;;5000171;28;20046;-75
2023/05/23 02:42:45;;;;;;;12.30;6.35;;;15.70;99.90;;;;;;4970547;28;20607;-76
2023/05/23 02:45:11;;;;;;;9.35;5.93;;;15.50;99.90;;;;;;4955309;28;20065;-83
2023/05/23 02:47:37;;;;;;;10.82;5.88;;;15.20;99.90;;;;;;4966939;28;20973;-77
2023/05/23 02:50:03;;;;;;;11.75;6.32;;;15.30;99.90;;;;;;4985398;28;20048;-84
2023/05/23 02:52:31;;;;;;;11.68;6.05;;;16.00;99.90;;;;;;4937145;28;20072;-78
2023/05/23 02:54:56;;;;;;;11.80;6.32;;;15.00;99.90;;;;;;5049143;28;20042;-75
2023/05/23 02:57:23;;;;;;;12.18;6.78;;;15.70;99.90;;;;;;4985273;28;20129;-82
2023/05/23 02:59:49;;;;;;;20.10;7.32;;;14.80;99.90;;;;;;4981912;28;20433;-79
2023/05/23 03:02:15;;;;;;;15.98;7.10;;;15.40;99.90;;;;;;4999710;28;20052;-79
2023/05/23 03:04:40;;;;;;;18.42;7.53;;;15.50;99.90;;;;;;4977725;28;20045;-79
2023/05/23 03:07:06;;;;;;;23.00;8.55;;;15.50;99.90;;;;;;4967509;28;20059;-82
2023/05/23 03:09:32;;;;;;;17.73;7.40;;;16.10;99.90;;;;;;4935037;28;20049;-79
2023/05/23 03:11:58;;;;;;;21.48;9.27;;;14.40;99.90;;;;;;4967265;28;20041;-79
2023/05/23 03:14:24;;;;;;;16.27;7.28;;;15.90;99.90;;;;;;4980509;28;20038;-83
2023/05/23 03:16:49;;;;;;;17.10;7.72;;;15.40;99.90;;;;;;4992825;28;20037;-82
2023/05/23 03:19:15;;;;;;;19.98;8.15;;;16.10;99.90;;;;;;4986952;28;20046;-82
2023/05/23 03:21:41;;;;;;;22.88;8.18;;;15.70;99.90;;;;;;4966837;28;20030;-81
2023/05/23 03:24:06;;;;;;;17.52;7.97;;;15.80;99.90;;;;;;4983889;28;20488;-78
2023/05/23 03:26:32;;;;;;;17.45;7.30;;;16.30;99.90;;;;;;4935337;28;20062;-80
2023/05/23 03:28:58;;;;;;;20.05;8.00;;;16.00;99.90;;;;;;4993758;28;20122;-81
2023/05/23 03:31:23;;;;;;;21.85;8.40;;;14.60;99.90;;;;;;4951237;28;20050;-78
2023/05/23 03:33:49;;;;;;;21.60;7.72;;;16.50;99.90;;;;;;4961505;28;20049;-80
2023/05/23 03:36:15;;;;;;;18.85;8.40;;;16.50;99.90;;;;;;4986902;28;20042;-78
2023/05/23 03:38:41;;;;;;;18.90;8.68;;;15.70;99.90;;;;;;4987452;28;20052;-81
2023/05/23 03:41:07;;;;;;;19.52;8.07;;;15.20;99.90;;;;;;4961020;28;20049;-80
2023/05/23 03:43:32;;;;;;;15.77;7.13;;;14.80;99.90;;;;;;4966813;28;20042;-79
2023/05/23 03:45:58;;;;;;;17.17;7.88;;;15.70;99.90;;;;;;4996455;28;20508;-77
2023/05/23 03:48:24;;;;;;;19.83;7.30;;;16.30;99.90;;;;;;4982115;28;20038;-81
2023/05/23 03:50:49;;;;;;;14.00;6.57;;;15.70;99.90;;;;;;4968591;28;20163;-78
2023/05/23 03:53:15;;;;;;;18.15;6.43;;;15.60;99.90;;;;;;4999375;28;20045;-79
2023/05/23 03:55:41;;;;;;;17.02;6.57;;;15.30;99.90;;;;;;4994004;28;20038;-79
2023/05/23 03:58:07;;;;;;;13.95;5.90;;;15.30;99.90;;;;;;4983613;28;20042;-79
2023/05/23 04:00:32;;;;;;;20.42;7.35;;;15.60;99.90;;;;;;4983314;28;20045;-78
2023/05/23 04:02:58;;;;;;;17.08;6.18;;;15.20;99.90;;;;;;4950378;28;20045;-77
2023/05/23 04:05:24;;;;;;;18.48;7.03;;;14.80;99.90;;;;;;4994377;28;20258;-78
2023/05/23 04:07:52;;;;;;;18.77;6.80;;;14.80;99.90;;;;;;4977038;28;20050;-84
2023/05/23 04:10:18;;;;;;;14.95;6.55;;;14.80;99.90;;;;;;4947945;28;20050;-77
2023/05/23 04:12:44;;;;;;;17.75;6.32;;;15.90;99.90;;;;;;4952803;28;20566;-76
2023/05/23 04:15:10;;;;;;;15.60;6.03;;;14.90;99.90;;;;;;4986168;28;20347;-76
2023/05/23 04:17:37;;;;;;;17.55;5.85;;;15.30;99.90;;;;;;4966477;28;20063;-77
2023/05/23 04:20:08;;;;;;;14.48;6.20;;;15.40;99.90;;;;;;5000149;28;20041;-80
2023/05/23 04:22:34;;;;;;;14.10;4.45;;;15.00;99.90;;;;;;5050589;28;20050;-79
2023/05/23 04:25:00;;;;;;;18.67;5.57;;;15.80;99.90;;;;;;4962723;28;20078;-81
2023/05/23 04:27:26;;;;;;;14.30;5.05;;;15.80;99.90;;;;;;4962933;28;20111;-77
2023/05/23 04:29:51;;;;;;;10.10;4.03;;;15.40;99.90;;;;;;4980320;28;20091;-75
2023/05/23 04:32:18;;;;;;;13.35;5.32;;;15.70;99.90;;;;;;5013480;28;20046;-74
2023/05/23 04:34:44;;;;;;;13.55;4.30;;;15.20;99.90;;;;;;4964532;28;20056;-77
2023/05/23 04:37:10;;;;;;;15.82;4.45;;;15.40;99.90;;;;;;4969436;28;20046;-77
2023/05/23 04:39:37;;;;;;;14.30;4.60;;;15.80;99.90;;;;;;4999420;28;20049;-76
2023/05/23 04:42:03;;;;;;;15.55;4.80;;;15.20;99.90;;;;;;5052338;28;20441;-75
2023/05/23 04:44:29;;;;;;;9.80;4.13;;;15.10;99.90;;;;;;4985478;28;20050;-76
2023/05/23 04:46:55;;;;;;;12.35;4.28;;;15.70;99.90;;;;;;4950984;28;20049;-73
2023/05/23 04:49:21;;;;;;;12.68;4.38;;;15.60;99.90;;;;;;4964199;28;20052;-76
2023/05/23 04:51:47;;;;;;;10.50;3.95;;;15.60;99.90;;;;;;4996625;28;20070;-77
2023/05/23 04:54:14;;;;;;;13.60;4.63;;;15.20;99.90;;;;;;4985090;28;20074;-76
2023/05/23 04:56:39;;;;;;;14.38;5.05;;;15.50;99.90;;;;;;4998168;28;20073;-75
2023/05/23 04:59:07;;;;;;;13.10;5.45;;;15.10;99.90;;;;;;4985610;28;20084;-73
2023/05/23 05:01:33;;;;;;;14.88;6.55;;;15.60;99.90;;;;;;4985901;28;20038;-78
2023/05/23 05:03:59;;;;;;;15.27;6.72;;;15.20;99.90;;;;;;4996456;28;20056;-77
2023/05/23 05:06:26;;;;;;;13.82;7.22;;;14.90;99.90;;;;;;4967870;28;20100;-80
2023/05/23 05:08:51;;;;;;;14.70;7.00;;;15.40;99.90;;;;;;4978381;28;20045;-77
2023/05/23 05:11:17;;;;;;;15.82;6.47;;;15.00;99.90;;;;;;4984855;28;20042;-80
2023/05/23 05:13:43;;;;;;;17.92;8.13;;;15.00;99.90;;;;;;4951481;28;20046;-79
2023/05/23 05:16:09;;;;;;;14.85;7.45;;;14.70;99.90;;;;;;4994924;28;21399;-79
2023/05/23 05:18:35;;;;;;;18.42;8.40;;;14.70;99.90;;;;;;5010912;28;20038;-82
2023/05/23 05:21:01;;;;;;;15.48;7.00;;;15.20;99.90;;;;;;4936057;28;20038;-75
2023/05/23 05:23:29;;;;;;;17.27;8.50;;;15.20;99.90;;;;;;4981655;28;20116;-83
2023/05/23 05:25:55;;;;;;;16.77;7.85;;;14.90;99.90;;;;;;4970133;28;20038;-80
2023/05/23 05:28:21;;;;;;;18.83;6.97;;;14.90;99.90;;;;;;5050712;28;20128;-81
2023/05/23 05:30:47;;;;;;;16.05;6.95;;;14.70;99.90;;;;;;4935040;28;20049;-82
2023/05/23 05:33:13;;;;;;;14.63;7.07;;;14.60;99.90;;;;;;4977499;28;20613;-78
2023/05/23 05:35:39;;;;;;;14.07;7.55;;;14.90;99.90;;;;;;4970353;28;20500;-79
2023/05/23 05:38:04;;;;;;;17.00;8.43;;;14.50;99.90;;;;;;4960122;28;20041;-82
2023/05/23 05:40:33;;;;;;;11.43;6.50;;;14.90;99.90;;;;;;4996445;28;20030;-81
2023/05/23 05:42:59;;;;;;;17.00;7.78;;;14.80;99.90;;;;;;4984459;28;20406;-81
2023/05/23 05:45:25;;;;;;;16.00;6.68;;;14.90;99.90;;;;;;4985943;28;20042;-78
2023/05/23 05:47:50;;;;;;;12.00;6.20;;;14.70;99.90;;;;;;4970619;28;20038;-75
2023/05/23 05:50:18;;;;;;;13.20;6.97;;;14.50;99.90;;;;;;4999063;28;20034;-77
2023/05/23 05:52:44;;;;;;;14.43;6.32;;;14.60;99.90;;;;;;5001903;28;20057;-75
2023/05/23 05:55:10;;;;;;;24.67;7.10;;;14.70;99.90;;;;;;4952129;28;20038;-80
2023/05/23 05:57:39;;;;;;;11.85;6.28;;;15.00;99.90;;;;;;4968965;28;20045;-81
2023/05/23 06:00:11;;;;;;;15.65;6.53;;;14.90;99.90;;;;;;4963960;28;20037;-79
2023/05/23 06:02:41;;;;;;;10.65;5.03;;;14.90;99.90;;;;;;4984792;28;20038;-75
2023/05/23 06:05:11;;;;;;;12.02;5.55;;;14.60;99.90;;;;;;4967031;28;20484;-78
2023/05/23 06:07:37;;;;;;;11.10;4.50;;;14.60;99.90;;;;;;4963475;28;20050;-80
2023/05/23 06:10:04;;;;;;;11.85;3.97;;;14.80;99.90;;;;;;4940075;28;20051;-77
2023/05/23 06:12:29;;;;;;;10.15;4.10;;;14.70;99.90;;;;;;4961361;28;20105;-77
2023/05/23 06:14:55;;;;;;;9.00;3.60;;;14.80;99.90;;;;;;4939970;28;20098;-76
2023/05/23 06:17:21;;;;;;;9.05;4.03;;;14.40;99.90;;;;;;4959078;28;20035;-76
2023/05/23 06:19:46;;;;;;;10.65;4.40;;;14.40;99.90;;;;;;4957648;28;20035;-78
2023/05/23 06:22:12;;;;;;;12.75;4.50;;;14.40;99.90;;;;;;4961595;28;20050;-76
2023/05/23 06:24:38;;;;;;;12.73;4.53;;;14.60;99.90;;;;;;4964832;28;20467;-82
2023/05/23 06:27:03;;;;;;;14.20;4.85;;;14.60;99.90;;;;;;4951318;28;20519;-80
2023/05/23 06:29:30;;;;;;;12.57;4.80;;;14.30;99.90;;;;;;4949709;28;20447;-80
2023/05/23 06:31:56;;;;;;;13.27;4.43;;;14.60;99.90;;;;;;4966315;28;20085;-78
2023/05/23 06:34:22;;;;;;;13.25;5.32;;;14.90;99.90;;;;;;4944191;28;20130;-77
2023/05/23 06:36:47;;;;;;;12.10;5.00;;;14.70;99.90;;;;;;4945198;28;20047;-77
2023/05/23 06:39:13;;;;;;;12.93;4.95;;;14.80;99.90;;;;;;4946533;28;20035;-81
2023/05/23 06:41:39;;;;;;;14.20;4.25;;;15.20;99.90;;;;;;4946557;28;20083;-76
2023/05/23 06:44:05;;;;;;;14.85;4.95;;;14.80;99.90;;;;;;4935378;28;20421;-78
2023/05/23 06:46:31;;;;;;;10.32;3.97;;;14.90;99.90;;;;;;4950518;28;20103;-79
2023/05/23 06:48:57;;;;;;;13.02;4.20;;;15.00;99.90;;;;;;5024112;28;20074;-77
2023/05/23 06:51:23;;;;;;;16.73;4.72;;;15.00;99.90;;;;;;4958140;28;20043;-77
2023/05/23 06:53:48;;;;;;;14.82;4.68;;;14.90;99.90;;;;;;4942679;28;20196;-77
2023/05/23 06:56:14;;;;;;;15.48;4.40;;;14.80;99.90;;;;;;4959745;28;20047;-81
2023/05/23 06:58:40;;;;;;;15.38;4.28;;;15.10;99.90;;;;;;4954602;28;20531;-76
2023/05/23 07:01:06;;;;;;;15.80;4.53;;;14.90;99.90;;;;;;4937900;28;20672;-77
2023/05/23 07:03:32;;;;;;;17.98;5.00;;;15.00;99.90;;;;;;4956361;28;20050;-79
2023/05/23 07:05:58;;;;;;;14.18;3.95;;;15.20;99.90;;;;;;4913519;28;20059;-77
2023/05/23 07:08:23;;;;;;;16.00;4.10;;;15.00;99.90;;;;;;4954275;28;20059;-75
2023/05/23 07:10:49;;;;;;;18.38;4.68;;;15.20;99.90;;;;;;4942707;28;20042;-77
2023/05/23 07:13:15;;;;;;;14.20;4.00;;;15.10;99.90;;;;;;4928903;28;20043;-79
2023/05/23 07:15:41;;;;;;;14.52;4.28;;;14.90;99.90;;;;;;4959060;28;20035;-78
2023/05/23 07:18:07;;;;;;;12.00;3.60;;;15.00;99.90;;;;;;5021758;28;20043;-76
2023/05/23 07:20:33;;;;;;;12.95;3.97;;;15.00;99.90;;;;;;4928231;28;20104;-77
2023/05/23 07:22:59;;;;;;;11.57;3.90;;;14.90;99.90;;;;;;4939734;28;20047;-77
2023/05/23 07:25:25;;;;;;;15.23;3.65;;;14.90;99.90;;;;;;4972378;28;20100;-78
2023/05/23 07:27:53;;;;;;;13.35;4.00;;;14.80;99.90;;;;;;4936223;28;20046;-78
2023/05/23 07:30:20;;;;;;;16.55;4.47;;;15.10;99.90;;;;;;4920157;28;20161;-76
2023/05/23 07:32:46;;;;;;;19.45;4.93;;;14.90;99.90;;;;;;4957165;28;20455;-73
2023/05/23 07:35:13;;;;;;;9.05;3.08;;;14.80;99.90;;;;;;4942923;28;20039;-73
2023/05/23 07:37:38;;;;;;;15.60;3.70;;;14.90;99.90;;;;;;5019806;28;20100;-76
2023/05/23 07:40:05;;;;;;;14.63;3.78;;;15.10;99.90;;;;;;4941873;28;20058;-72
2023/05/23 07:42:31;;;;;;;15.20;3.70;;;15.20;99.90;;;;;;4959878;28;20040;-77
2023/05/23 07:44:56;;;;;;;12.45;3.58;;;15.20;99.90;;;;;;4940573;28;20073;-71
2023/05/23 07:47:23;;;;;;;15.15;3.53;;;15.40;99.90;;;;;;4959032;28;20116;-73
2023/05/23 07:49:51;;;;;;;17.55;3.95;;;15.50;99.90;;;;;;4941791;28;20112;-74
2023/05/23 07:52:16;;;;;;;15.32;3.80;;;15.30;99.90;;;;;;4932181;28;20432;-74
2023/05/23 07:54:42;;;;;;;11.43;3.30;;;15.30;99.90;;;;;;4957968;28;20045;-74
2023/05/23 07:57:08;;;;;;;16.33;3.78;;;15.50;99.90;;;;;;4958054;28;20043;-76
2023/05/23 07:59:35;;;;;;;13.30;3.65;;;15.40;99.90;;;;;;4944861;28;20038;-78
2023/05/23 08:02:01;;;;;;;11.05;3.90;;;15.60;99.90;;;;;;4946269;28;20142;-78
2023/05/23 08:04:28;;;;;;;14.13;4.35;;;15.70;99.90;;;;;;4946015;28;20043;-78
2023/05/23 08:06:54;;;;;;;14.40;3.65;;;16.30;99.90;;;;;;4961901;28;20059;-79
2023/05/23 08:09:20;;;;;;;11.32;3.33;;;16.20;99.90;;;;;;4968103;28;20062;-77
2023/05/23 08:11:46;;;;;;;13.20;3.67;;;16.30;99.90;;;;;;4969323;28;20475;-79
2023/05/23 08:14:12;;;;;;;15.60;4.35;;;16.20;99.90;;;;;;4946712;28;20043;-76
2023/05/23 08:16:37;;;;;;;15.52;3.85;;;15.90;99.90;;;;;;4931919;28;20035;-81
2023/05/23 08:19:03;;;;;;;13.57;4.05;;;16.00;99.90;;;;;;4913949;28;20499;-76
2023/05/23 08:21:29;;;;;;;15.30;4.40;;;16.10;99.90;;;;;;4947801;28;20051;-76
2023/05/23 08:23:55;;;;;;;11.90;3.65;;;16.00;99.90;;;;;;4927041;28;20050;-74
2023/05/23 08:26:21;;;;;;;14.75;3.42;;;16.00;99.90;;;;;;4950149;28;20039;-74
2023/05/23 08:28:47;;;;;;;12.00;3.38;;;16.80;99.90;;;;;;5026792;28;20046;-77
2023/05/23 08:31:13;;;;;;;9.80;3.15;;;16.60;99.90;;;;;;4963742;28;20053;-75
2023/05/23 08:33:39;;;;;;;12.63;3.60;;;16.60;99.90;;;;;;4940731;28;20042;-76
2023/05/23 08:36:04;;;;;;;15.63;4.65;;;16.20;99.90;;;;;;4945083;28;20498;-78
2023/05/23 08:38:30;;;;;;;12.85;3.42;;;16.10;99.90;;;;;;4927166;28;20034;-78
2023/05/23 08:41:00;;;;;;;12.15;3.45;;;16.30;99.90;;;;;;4928434;28;20675;-76
2023/05/23 08:43:26;;;;;;;13.90;3.70;;;16.60;99.90;;;;;;4947247;28;20047;-79
2023/05/23 08:45:53;;;;;;;14.57;4.22;;;16.30;99.90;;;;;;4929115;28;20053;-78
2023/05/23 08:48:20;;;;;;;13.77;3.50;;;16.30;99.90;;;;;;4945355;28;20043;-78
2023/05/23 08:50:47;;;;;;;11.00;3.63;;;16.40;99.90;;;;;;4944524;28;20042;-77
2023/05/23 08:53:19;;;;;;;13.70;3.47;;;16.30;99.90;;;;;;4947437;28;20443;-77
2023/05/23 08:55:50;;;;;;;14.23;3.63;;;16.40;99.90;;;;;;4962734;28;20129;-75
2023/05/23 08:58:19;;;;;;;9.50;2.90;;;16.50;99.90;;;;;;4942303;28;20069;-79
2023/05/23 09:00:46;;;;;;;9.48;3.13;;;16.30;99.90;;;;;;4960150;28;20539;-74
2023/05/23 09:03:13;;;;;;;14.40;3.70;;;16.30;99.90;;;;;;5028125;28;20078;-75
2023/05/23 09:05:38;;;;;;;8.23;2.97;;;16.30;99.90;;;;;;5034905;28;20536;-76
2023/05/23 09:08:04;;;;;;;12.73;3.38;;;16.20;99.90;;;;;;4960224;28;20127;-76
2023/05/23 09:10:30;;;;;;;12.48;3.15;;;16.50;99.90;;;;;;4937049;29;20050;-74
2023/05/23 09:12:57;;;;;;;13.25;3.40;;;16.30;99.90;;;;;;4987523;28;20043;-72
2023/05/23 09:15:23;;;;;;;9.77;3.30;;;16.40;99.90;;;;;;4957526;28;20074;-74
2023/05/23 09:17:49;;;;;;;13.30;3.58;;;16.30;99.90;;;;;;4941952;28;20031;-71
2023/05/23 09:20:16;;;;;;;15.77;3.83;;;16.40;99.90;;;;;;4959492;28;20132;-76
2023/05/23 09:22:47;;;;;;;13.48;3.47;;;16.10;99.90;;;;;;4956155;28;20031;-78
2023/05/23 09:25:13;;;;;;;15.68;4.00;;;16.10;99.90;;;;;;4958601;28;20494;-76
2023/05/23 09:27:40;;;;;;;9.77;3.22;;;16.20;99.90;;;;;;4956605;28;20536;-77
2023/05/23 09:30:07;;;;;;;9.32;3.78;;;16.20;99.90;;;;;;4957816;28;20700;-75
2023/05/23 09:32:32;;;;;;;9.52;3.28;;;16.00;99.90;;;;;;4946763;28;20450;-75
2023/05/23 09:35:01;;;;;;;13.00;3.10;;;16.20;99.90;;;;;;4938311;28;20097;-76
2023/05/23 09:37:42;;;;;;;9.60;3.33;;;16.00;99.90;;;;;;4942604;28;20134;-76
2023/05/23 09:40:09;;;;;;;11.02;2.88;;;16.00;99.90;;;;;;4958202;28;20043;-74
2023/05/23 09:42:40;;;;;;;10.50;3.05;;;16.40;99.90;;;;;;4983978;28;20040;-77
2023/05/23 09:45:06;;;;;;;10.73;2.92;;;16.40;99.90;;;;;;4961937;28;20406;-72
2023/05/23 09:47:32;;;;;;;13.20;3.40;;;16.30;99.90;;;;;;4940657;28;20051;-75
2023/05/23 09:49:58;;;;;;;11.18;3.13;;;16.70;99.90;;;;;;4938400;28;20673;-72
2023/05/23 09:52:23;;;;;;;10.93;3.22;;;16.70;99.90;;;;;;4955169;28;20045;-72
2023/05/23 09:54:49;;;;;;;16.42;3.38;;;17.20;99.90;;;;;;4988040;28;20047;-72
2023/05/23 09:57:16;;;;;;;11.25;2.90;;;17.10;99.90;;;;;;4991663;28;20049;-75
2023/05/23 09:59:55;;;;;;;12.48;3.53;;;16.90;99.90;;;;;;4956203;28;20039;-73
2023/05/23 10:02:39;;;;;;;12.90;4.00;;;17.20;99.90;;;;;;4951817;28;20120;-73
2023/05/23 10:05:08;;;;;;;11.80;3.45;;;17.20;99.90;;;;;;4993460;28;20042;-75
2023/05/23 10:07:34;;;;;;;12.63;3.08;;;17.70;99.90;;;;;;4956393;28;20137;-72
2023/05/23 10:10:03;;;;;;;12.63;2.67;;;17.70;99.90;;;;;;4966305;28;20050;-75
2023/05/23 10:12:31;;;;;;;10.52;3.65;;;17.20;99.90;;;;;;4972700;28;20053;-72
2023/05/23 10:15:02;;;;;;;10.45;3.25;;;17.10;99.90;;;;;;4975797;28;20088;-73
2023/05/23 10:17:31;;;;;;;12.85;3.15;;;17.20;99.90;;;;;;4971926;28;20053;-75
2023/05/23 10:20:07;;;;;;;13.13;3.60;;;16.90;99.90;;;;;;4965455;28;20046;-76
2023/05/23 10:22:35;;;;;;;10.18;3.22;;;17.30;99.90;;;;;;4966784;28;20121;-76
2023/05/23 10:25:06;;;;;;;9.88;2.90;;;17.00;99.90;;;;;;4982548;28;20042;-79
2023/05/23 10:27:32;;;;;;;8.43;2.60;;;17.10;99.90;;;;;;4969856;28;20046;-77
2023/05/23 10:30:01;;;;;;;10.15;3.33;;;17.00;99.90;;;;;;4985010;28;20039;-78
2023/05/23 10:32:28;;;;;;;10.32;2.53;;;17.80;99.90;;;;;;4979592;28;20045;-77
2023/05/23 10:35:36;;;;;;;9.18;2.97;;;17.70;99.90;;;;;;4983744;28;20070;-75
2023/05/23 10:38:22;;;;;;;11.45;2.75;;;17.90;99.90;;;;;;4968765;28;20050;-77
2023/05/23 10:41:01;;;;;;;9.60;2.70;;;17.60;99.90;;;;;;5006200;28;20054;-78
2023/05/23 10:43:58;;;;;;;9.70;3.40;;;17.40;99.90;;;;;;4984520;28;20500;-80
2023/05/23 10:46:54;;;;;;;9.98;2.75;;;17.60;99.90;;;;;;5015449;28;20066;-77
2023/05/23 10:49:21;;;;;;;8.63;2.53;;;17.50;99.90;;;;;;4966811;28;20127;-80
2023/05/23 10:51:53;;;;;;;10.43;3.10;;;17.80;99.90;;;;;;4984772;28;20500;-75
2023/05/23 10:54:19;;;;;;;11.15;3.25;;;17.90;99.90;;;;;;4985837;28;20510;-77
2023/05/23 10:56:45;;;;;;;10.48;2.67;;;17.90;99.90;;;;;;4976532;28;20049;-79
2023/05/23 10:59:21;;;;;;;11.13;3.00;;;18.40;99.90;;;;;;4977639;28;20042;-74
2023/05/23 11:01:51;;;;;;;11.13;3.80;;;18.40;99.90;;;;;;4979327;28;20038;-78
2023/05/23 11:04:25;;;;;;;12.50;2.75;;;17.90;99.90;;;;;;4993259;28;20719;-74
2023/05/23 11:06:54;;;;;;;9.52;2.70;;;18.00;99.90;;;;;;5006651;28;20425;-75
2023/05/23 11:09:20;;;;;;;7.65;2.95;;;18.10;99.90;;;;;;4976617;28;20418;-72
2023/05/23 11:12:04;;;;;;;8.63;2.80;;;18.60;99.90;;;;;;4962124;28;20049;-74
2023/05/23 11:14:50;;;;;;;9.40;2.83;;;18.10;99.90;;;;;;4948401;28;20742;-73
2023/05/23 11:17:31;;;;;;;11.23;3.15;;;17.40;99.90;;;;;;5011573;28;20046;-74
2023/05/23 11:20:08;;;;;;;11.70;2.92;;;17.00;99.90;;;;;;4977619;28;20499;-73
2023/05/23 11:22:35;;;;;;;9.88;3.13;;;17.10;99.90;;;;;;4963906;28;20035;-75
2023/05/23 11:25:06;;;;;;;12.30;2.97;;;17.40;99.90;;;;;;4957586;28;20378;-74
2023/05/23 11:27:37;;;;;;;12.48;3.22;;;18.00;99.90;;;;;;5004949;28;20104;-74
2023/05/23 11:30:14;;;;;;;9.70;2.67;;;17.80;99.90;;;;;;4971671;28;20092;-77
2023/05/23 11:32:41;;;;;;;10.80;2.90;;;17.40;99.90;;;;;;4958205;28;20124;-74
2023/05/23 11:35:09;;;;;;;7.90;2.65;;;17.30;99.90;;;;;;4990071;28;20049;-75
2023/05/23 11:37:37;;;;;;;10.05;2.63;;;17.40;99.90;;;;;;4988700;28;20041;-75
2023/05/23 11:40:25;;;;;;;8.55;3.05;;;18.20;99.90;;;;;;4943676;28;20042;-75
2023/05/23 11:42:51;;;;;;;10.70;2.65;;;17.70;99.90;;;;;;4971163;28;20039;-73
2023/05/23 11:45:24;;;;;;;12.68;2.85;;;17.40;99.90;;;;;;4976593;28;20046;-72
2023/05/23 11:47:56;;;;;;;8.50;3.00;;;17.60;99.90;;;;;;4971408;28;20441;-76
2023/05/23 11:50:25;;;;;;;13.25;3.70;;;17.20;99.90;;;;;;4971257;28;20046;-74
2023/05/23 11:52:53;;;;;;;12.70;3.05;;;17.30;99.90;;;;;;5002520;28;20045;-73
2023/05/23 11:55:22;;;;;;;5.78;2.40;;;17.60;99.90;;;;;;4958256;28;20039;-74
2023/05/23 11:57:50;;;;;;;12.93;3.72;;;17.40;99.90;;;;;;4973740;28;21016;-74
2023/05/23 12:00:17;;;;;;;13.00;3.20;;;17.60;99.90;;;;;;4972305;28;20100;-76
2023/05/23 12:02:44;;;;;;;12.20;3.65;;;17.60;99.90;;;;;;4960968;28;20070;-75
2023/05/23 12:05:15;;;;;;;11.27;2.95;;;18.20;99.90;;;;;;4948416;28;20556;-77
2023/05/23 12:07:52;;;;;;;9.27;2.90;;;17.90;99.90;;;;;;4993318;28;20486;-76
2023/05/23 12:10:21;;;;;;;10.38;2.80;;;18.00;99.90;;;;;;4981306;28;20046;-77
2023/05/23 12:12:46;;;;;;;8.93;2.67;;;17.60;99.90;;;;;;4989756;28;20432;-76
2023/05/23 12:15:13;;;;;;;9.43;2.88;;;17.30;99.90;;;;;;5002358;28;20055;-77
2023/05/23 12:17:47;;;;;;;12.30;2.88;;;17.10;99.90;;;;;;4990547;28;20050;-76
2023/05/23 12:20:13;;;;;;;10.40;3.23;;;16.80;99.90;;;;;;4959438;28;20125;-74
2023/05/23 12:22:39;;;;;;;11.40;3.05;;;16.70;99.90;;;;;;4971298;28;20138;-72
2023/05/23 12:25:09;;;;;;;14.93;3.20;;;17.40;99.90;;;;;;4970318;28;20119;-74
2023/05/23 12:27:36;;;;;;;10.07;2.63;;;17.90;99.90;;;;;;4955310;28;20065;-80
2023/05/23 12:30:28;;;;;;;8.00;2.63;;;17.90;99.90;;;;;;4944644;28;20520;-78
2023/05/23 12:32:54;;;;;;;8.35;2.35;;;17.70;99.90;;;;;;4955738;28;20087;-76
2023/05/23 12:35:20;;;;;;;16.55;3.55;;;17.20;99.90;;;;;;4955083;28;20390;-76
2023/05/23 12:37:46;;;;;;;12.52;3.50;;;16.90;99.90;;;;;;4965772;28;20064;-77
2023/05/23 12:40:16;;;;;;;13.25;3.50;;;17.40;99.90;;;;;;4961052;28;20047;-79